Hadley Wood, United Kingdom
Current Conditions -  °F | °C
As of 11:50 AM on Monday 22 Dec 2014 (Local Time) from EGWU Reporting Station
Overcast Overcast  
Wind Chill: 55°   Ceiling: 2300
Heat Index: 55°   Visibility: 6mi
Dew Point: 46°   Wind: 20mph
Humidity: 72%   Direction: 260°W
Pressure: 30.06"   Gusts: 31mph
Location:  51.67°N, 0.17°W
Report Text: EGWU 221150Z 26017G27KT 9999 BKN023 OVC032 13/08 Q1018 NOSIG
Loading
Personal Weather Stations






























Interactive Weather Map New forecast layout! Learn more

10-Day Weather Forecast

Advertisements
Track Severe Weather on mobile